createdAt,value
2022-10-02T00:02:40.991Z,1.30
2022-10-02T00:06:11.376Z,1.10
2022-10-02T00:10:12.061Z,1.20
2022-10-02T00:14:05.277Z,1.00
2022-10-02T00:17:53.743Z,0.90
2022-10-02T00:21:44.772Z,1.10
2022-10-02T00:25:37.765Z,1.30
2022-10-02T00:29:20.608Z,1.30
2022-10-02T00:37:22.885Z,1.02
2022-10-02T00:40:51.890Z,1.25
2022-10-02T00:44:42.076Z,0.82
2022-10-02T00:52:58.860Z,0.90
2022-10-02T01:00:26.276Z,0.80
2022-10-02T01:04:16.865Z,0.82
2022-10-02T01:07:44.225Z,0.88
2022-10-02T01:11:45.861Z,0.80
2022-10-02T01:15:36.315Z,0.77
2022-10-02T01:18:59.266Z,0.80
2022-10-02T01:22:54.680Z,1.00
2022-10-02T01:26:18.612Z,0.75
2022-10-02T01:30:17.714Z,0.75
2022-10-02T01:33:24.486Z,0.80
2022-10-02T01:37:08.903Z,0.88
2022-10-02T01:40:37.957Z,0.80
2022-10-02T01:44:23.504Z,0.93
2022-10-02T01:48:32.266Z,0.68
2022-10-02T01:52:24.209Z,0.77
2022-10-02T01:56:31.313Z,0.90
2022-10-02T02:00:08.807Z,0.70
2022-10-02T02:04:07.173Z,0.65
2022-10-02T02:07:46.307Z,0.80
2022-10-02T02:11:19.811Z,0.68
2022-10-02T02:15:05.281Z,0.70
2022-10-02T02:18:42.798Z,0.70
2022-10-02T02:22:34.395Z,0.70
2022-10-02T02:26:20.665Z,0.80
2022-10-02T02:30:05.093Z,0.82
2022-10-02T02:34:15.938Z,0.60
2022-10-02T02:37:40.588Z,0.60
2022-10-02T02:41:15.214Z,0.75
2022-10-02T02:45:21.283Z,0.70
2022-10-02T02:48:48.884Z,0.70
2022-10-02T02:52:23.147Z,0.80
2022-10-02T02:56:15.324Z,0.90
2022-10-02T03:03:31.019Z,0.70
2022-10-02T03:07:03.989Z,0.68
2022-10-02T03:10:52.653Z,0.70
2022-10-02T03:14:44.199Z,0.55
2022-10-02T03:18:17.035Z,0.68
2022-10-02T03:21:55.561Z,0.73
2022-10-02T03:25:40.299Z,0.60
2022-10-02T03:29:13.131Z,0.57
2022-10-02T03:32:53.743Z,0.60
2022-10-02T03:37:01.817Z,0.70
2022-10-02T03:41:13.729Z,0.60
2022-10-02T03:44:49.832Z,0.57
2022-10-02T03:48:27.326Z,0.70
2022-10-02T03:52:01.262Z,0.60
2022-10-02T03:55:40.987Z,0.60
2022-10-02T03:59:28.837Z,0.60
2022-10-02T04:03:01.510Z,0.60
2022-10-02T04:06:50.225Z,0.50
2022-10-02T04:10:14.049Z,0.62
2022-10-02T04:14:10.068Z,0.50
2022-10-02T04:17:59.011Z,0.52
2022-10-02T04:21:43.722Z,0.45
2022-10-02T04:25:21.557Z,0.80
2022-10-02T04:29:22.228Z,0.52
2022-10-02T04:33:26.379Z,0.95
2022-10-02T04:37:21.597Z,0.70
2022-10-02T04:41:55.802Z,0.62
2022-10-02T04:46:16.105Z,0.55
2022-10-02T04:50:02.264Z,1.00
2022-10-02T04:54:14.329Z,0.80
2022-10-02T04:58:09.977Z,0.52
2022-10-02T05:10:23.386Z,0.80
2022-10-02T05:18:45.606Z,0.40
2022-10-02T05:23:17.481Z,0.73
2022-10-02T05:30:38.291Z,0.60
2022-10-02T05:34:16.055Z,0.68
2022-10-02T05:38:31.984Z,0.60
2022-10-02T05:42:14.875Z,0.73
2022-10-02T05:45:42.277Z,0.82
2022-10-02T05:49:35.148Z,0.60
2022-10-02T05:53:37.933Z,0.88
2022-10-02T05:57:33.631Z,0.75
2022-10-02T06:01:28.271Z,0.60
2022-10-02T06:05:55.743Z,0.50
2022-10-02T06:09:31.939Z,0.82
2022-10-02T06:13:13.298Z,0.70
2022-10-02T06:16:40.409Z,0.70
2022-10-02T06:20:38.259Z,0.43
2022-10-02T06:24:20.523Z,0.60
2022-10-02T06:27:59.806Z,0.88
2022-10-02T06:31:42.117Z,1.10
2022-10-02T06:40:33.269Z,0.60
2022-10-02T06:48:26.136Z,0.70
2022-10-02T06:52:13.355Z,0.57
2022-10-02T06:56:14.628Z,0.52
2022-10-02T07:00:35.095Z,0.60
2022-10-02T07:13:04.565Z,0.50
2022-10-02T07:16:58.434Z,0.60
2022-10-02T07:21:28.743Z,0.70
2022-10-02T07:33:06.529Z,0.60
2022-10-02T07:41:32.804Z,0.55
2022-10-02T07:45:38.312Z,0.40
2022-10-02T07:49:49.048Z,0.55
2022-10-02T07:53:43.528Z,0.60
2022-10-02T07:57:46.462Z,0.47
2022-10-02T08:16:29.979Z,0.60
2022-10-02T08:19:53.182Z,0.85
2022-10-02T08:27:49.087Z,0.75
2022-10-02T08:31:17.086Z,0.70
2022-10-02T08:34:53.433Z,0.62
2022-10-02T08:38:37.790Z,0.50
2022-10-02T08:42:12.746Z,0.70
2022-10-02T08:45:54.390Z,0.50
2022-10-02T08:50:08.253Z,0.70
2022-10-02T08:54:00.633Z,0.68
2022-10-02T08:57:52.628Z,0.77
2022-10-02T09:02:03.646Z,1.08
2022-10-02T09:05:54.817Z,0.80
2022-10-02T09:09:41.082Z,0.82
2022-10-02T09:13:31.892Z,0.57
2022-10-02T09:17:21.756Z,0.50
2022-10-02T09:21:14.573Z,0.60
2022-10-02T09:25:11.405Z,0.77
2022-10-02T09:29:00.548Z,0.60
2022-10-02T09:32:57.865Z,0.77
2022-10-02T09:36:58.159Z,0.65
2022-10-02T09:40:55.154Z,0.70
2022-10-02T09:45:01.783Z,0.75
2022-10-02T09:48:51.380Z,0.52
2022-10-02T09:53:16.763Z,0.52
2022-10-02T09:57:06.128Z,0.57
2022-10-02T10:00:51.999Z,0.50
2022-10-02T10:05:04.403Z,1.08
2022-10-02T10:09:01.870Z,0.73
2022-10-02T10:13:10.115Z,0.60
2022-10-02T10:17:10.074Z,0.75
2022-10-02T10:21:14.946Z,0.70
2022-10-02T10:24:58.174Z,0.50
2022-10-02T10:28:44.192Z,0.60
2022-10-02T10:33:08.776Z,0.50
2022-10-02T10:37:16.548Z,0.80
2022-10-02T10:41:22.498Z,0.80
2022-10-02T10:45:25.239Z,0.60
2022-10-02T10:49:03.369Z,0.43
2022-10-02T10:52:55.100Z,0.70
2022-10-02T10:56:49.641Z,0.80
2022-10-02T11:00:44.083Z,0.73
2022-10-02T11:04:47.713Z,0.60
2022-10-02T11:08:43.323Z,0.70
2022-10-02T11:12:19.697Z,0.50
2022-10-02T11:16:13.339Z,0.98
2022-10-02T11:20:05.419Z,0.80
2022-10-02T11:24:06.578Z,0.95
2022-10-02T11:27:57.530Z,0.70
2022-10-02T11:31:57.852Z,0.70
2022-10-02T11:40:01.677Z,0.60
2022-10-02T11:43:48.404Z,0.62
2022-10-02T11:47:58.418Z,0.52
2022-10-02T11:51:48.519Z,0.60
2022-10-02T11:56:22.875Z,0.60
2022-10-02T12:00:13.464Z,0.70
2022-10-02T12:04:28.264Z,0.70
2022-10-02T12:08:53.784Z,0.75
2022-10-02T12:12:51.630Z,0.50
2022-10-02T12:16:34.268Z,0.70
2022-10-02T12:20:38.387Z,0.60
2022-10-02T12:24:35.232Z,0.60
2022-10-02T12:28:28.862Z,0.65
2022-10-02T12:32:08.127Z,0.75
2022-10-02T12:35:43.540Z,0.90
2022-10-02T12:39:35.312Z,0.62
2022-10-02T12:43:32.579Z,0.62
2022-10-02T12:47:22.818Z,0.60
2022-10-02T12:50:55.539Z,0.60
2022-10-02T12:54:33.917Z,0.80
2022-10-02T12:58:27.079Z,0.52
2022-10-02T13:02:49.081Z,0.75
2022-10-02T13:06:20.357Z,0.70
2022-10-02T13:09:57.536Z,0.60
2022-10-02T13:13:58.589Z,0.52
2022-10-02T13:17:56.048Z,0.60
2022-10-02T13:22:10.017Z,0.60
2022-10-02T13:26:13.500Z,0.60
2022-10-02T13:30:10.752Z,0.70
2022-10-02T13:33:50.290Z,0.70
2022-10-02T13:37:34.685Z,0.70
2022-10-02T13:41:16.841Z,0.70
2022-10-02T13:44:59.268Z,0.73
2022-10-02T13:49:02.370Z,0.40
2022-10-02T13:53:04.570Z,0.77
2022-10-02T13:57:05.622Z,0.50
2022-10-02T14:00:38.466Z,0.50
2022-10-02T14:04:20.708Z,0.57
2022-10-02T14:08:22.765Z,0.50
2022-10-02T14:12:47.967Z,0.45
2022-10-02T14:16:48.450Z,0.73
2022-10-02T14:20:38.061Z,0.40
2022-10-02T14:25:00.624Z,0.57
2022-10-02T14:28:45.807Z,0.57
2022-10-02T14:32:44.648Z,0.45
2022-10-02T14:36:42.674Z,0.50
2022-10-02T14:40:18.680Z,0.50
2022-10-02T14:44:09.344Z,0.57
2022-10-02T14:47:46.274Z,0.40
2022-10-02T14:51:26.794Z,0.40
2022-10-02T14:55:31.490Z,0.50
2022-10-02T14:59:15.904Z,0.57
2022-10-02T15:03:01.597Z,0.55
2022-10-02T15:06:56.448Z,0.60
2022-10-02T15:10:37.974Z,0.70
2022-10-02T15:14:27.435Z,0.40
2022-10-02T15:18:21.024Z,0.37
2022-10-02T15:22:28.443Z,0.60
2022-10-02T15:26:07.521Z,0.50
2022-10-02T15:30:18.507Z,0.68
2022-10-02T15:34:02.774Z,0.68
2022-10-02T15:38:02.188Z,1.23
2022-10-02T15:41:43.686Z,0.60
2022-10-02T15:45:24.460Z,0.68
2022-10-02T15:49:11.199Z,0.45
2022-10-02T15:52:54.169Z,0.80
2022-10-02T15:56:35.827Z,0.50
2022-10-02T16:00:22.595Z,0.70
2022-10-02T16:04:11.527Z,0.50
2022-10-02T16:08:25.258Z,0.57
2022-10-02T16:12:04.615Z,0.57
2022-10-02T16:15:49.961Z,0.60
2022-10-02T16:19:23.535Z,0.55
2022-10-02T16:23:22.834Z,0.50
2022-10-02T16:27:03.740Z,0.50
2022-10-02T16:30:59.780Z,0.65
2022-10-02T16:34:38.754Z,0.75
2022-10-02T16:38:36.955Z,0.73
2022-10-02T16:42:28.179Z,0.80
2022-10-02T16:46:16.484Z,0.93
2022-10-02T16:50:15.440Z,0.80
2022-10-02T16:53:55.666Z,0.80
2022-10-02T16:57:41.013Z,0.60
2022-10-02T17:01:26.462Z,0.70
2022-10-02T17:05:23.008Z,0.80
2022-10-02T17:09:06.299Z,1.02
2022-10-02T17:13:30.458Z,0.62
2022-10-02T17:17:12.250Z,0.82
2022-10-02T17:20:59.509Z,1.20
2022-10-02T17:25:05.384Z,1.20
2022-10-02T17:28:51.978Z,1.30
2022-10-02T17:32:41.603Z,1.05
2022-10-02T17:36:36.262Z,1.20
2022-10-02T17:40:08.946Z,1.15
2022-10-02T17:43:59.468Z,1.33
2022-10-02T17:47:46.429Z,1.62
2022-10-02T17:51:55.936Z,1.20
2022-10-02T17:56:26.867Z,1.52
2022-10-02T18:00:11.430Z,1.35
2022-10-02T18:04:36.365Z,1.20
2022-10-02T18:08:09.240Z,1.15
2022-10-02T18:12:14.612Z,0.90
2022-10-02T18:16:12.748Z,1.10
2022-10-02T18:20:13.746Z,1.35
2022-10-02T18:24:08.271Z,1.52
2022-10-02T18:27:59.086Z,0.90
2022-10-02T18:35:32.176Z,1.05
2022-10-02T18:39:29.126Z,1.00
2022-10-02T18:43:47.700Z,0.90
2022-10-02T18:47:42.340Z,1.00
2022-10-02T18:51:20.679Z,0.80
2022-10-02T18:54:58.819Z,0.98
2022-10-02T18:58:57.610Z,0.80
2022-10-02T19:02:42.918Z,0.82
2022-10-02T19:06:18.042Z,0.85
2022-10-02T19:10:15.539Z,0.85
2022-10-02T19:13:49.107Z,1.27
2022-10-02T19:17:32.711Z,0.82
2022-10-02T19:21:19.507Z,0.82
2022-10-02T19:25:06.075Z,0.75
2022-10-02T19:28:47.394Z,0.90
2022-10-02T19:36:30.454Z,1.02
2022-10-02T19:40:04.489Z,0.80
2022-10-02T19:43:59.515Z,1.35
2022-10-02T19:47:42.198Z,1.27
2022-10-02T19:51:22.496Z,1.10
2022-10-02T19:55:04.535Z,1.30
2022-10-02T19:58:44.621Z,1.52
2022-10-02T20:02:36.534Z,1.15
2022-10-02T20:06:19.849Z,0.80
2022-10-02T20:10:02.219Z,0.82
2022-10-02T20:13:50.307Z,1.15
2022-10-02T20:17:22.312Z,0.50
2022-10-02T20:21:06.658Z,0.73
2022-10-02T20:24:51.114Z,0.70
2022-10-02T20:28:37.553Z,0.70
2022-10-02T20:32:22.083Z,0.80
2022-10-02T20:36:04.429Z,0.50
2022-10-02T20:40:01.395Z,0.82
2022-10-02T20:43:45.060Z,0.60
2022-10-02T20:47:51.923Z,0.70
2022-10-02T20:51:52.335Z,0.52
2022-10-02T20:55:32.891Z,0.50
2022-10-02T20:59:32.522Z,0.60
2022-10-02T21:03:24.399Z,0.50
2022-10-02T21:07:40.657Z,0.57
2022-10-02T21:11:25.786Z,0.60
2022-10-02T21:15:14.096Z,0.47
2022-10-02T21:19:04.527Z,0.43
2022-10-02T21:22:58.962Z,0.50
2022-10-02T21:26:48.778Z,0.47
2022-10-02T21:30:34.476Z,0.60
2022-10-02T21:34:33.265Z,0.47
2022-10-02T21:38:32.767Z,0.62
2022-10-02T21:42:17.676Z,0.60
2022-10-02T21:46:22.997Z,0.93
2022-10-02T21:50:31.736Z,0.62
2022-10-02T21:54:47.750Z,0.52
2022-10-02T21:58:45.267Z,0.50
2022-10-02T22:02:41.965Z,0.70
2022-10-02T22:06:27.683Z,0.60
2022-10-02T22:10:03.867Z,0.40
2022-10-02T22:13:44.869Z,0.50
2022-10-02T22:17:34.299Z,0.50
2022-10-02T22:21:27.458Z,0.47
2022-10-02T22:25:14.075Z,0.43
2022-10-02T22:29:10.610Z,0.50
2022-10-02T22:33:13.208Z,0.60
2022-10-02T22:37:04.013Z,0.50
2022-10-02T22:40:48.332Z,0.62
2022-10-02T22:44:52.900Z,0.50
2022-10-02T22:48:44.264Z,0.50
2022-10-02T22:52:48.710Z,0.43
2022-10-02T22:56:43.347Z,0.62
2022-10-02T23:00:29.628Z,0.60
2022-10-02T23:03:56.133Z,0.62
2022-10-02T23:07:36.772Z,0.57
2022-10-02T23:11:10.174Z,0.70
2022-10-02T23:15:14.885Z,0.50
2022-10-02T23:18:56.652Z,0.43
2022-10-02T23:22:48.272Z,0.50
2022-10-02T23:26:39.405Z,0.60
2022-10-02T23:30:19.191Z,0.60
2022-10-02T23:34:14.982Z,0.68
2022-10-02T23:37:57.912Z,0.40
2022-10-02T23:41:40.738Z,0.50
2022-10-02T23:45:50.220Z,0.60
2022-10-02T23:49:31.618Z,0.60
2022-10-02T23:53:40.417Z,0.65
2022-10-02T23:57:29.984Z,0.60
